createdAt,value
2023-03-13T00:01:00.452Z,72.80
2023-03-13T00:03:27.868Z,73.00
2023-03-13T00:05:58.082Z,73.10
2023-03-13T00:08:25.988Z,72.80
2023-03-13T00:10:52.835Z,72.60
2023-03-13T00:13:19.767Z,72.60
2023-03-13T00:15:46.658Z,72.60
2023-03-13T00:18:13.846Z,72.70
2023-03-13T00:20:40.826Z,72.70
2023-03-13T00:23:07.706Z,72.50
2023-03-13T00:25:34.519Z,72.10
2023-03-13T00:28:01.534Z,72.20
2023-03-13T00:30:28.455Z,72.00
2023-03-13T00:32:55.522Z,71.60
2023-03-13T00:35:22.604Z,71.60
2023-03-13T00:37:49.560Z,71.50
2023-03-13T00:40:16.505Z,71.70
2023-03-13T00:42:43.393Z,71.70
2023-03-13T00:45:10.586Z,71.70
2023-03-13T00:47:37.425Z,71.90
2023-03-13T00:50:04.487Z,71.90
2023-03-13T00:52:31.402Z,71.70
2023-03-13T00:54:58.322Z,71.70
2023-03-13T00:57:25.209Z,71.70
2023-03-13T00:59:52.214Z,72.00
2023-03-13T01:02:19.130Z,71.90
2023-03-13T01:04:46.325Z,71.90
2023-03-13T01:07:13.291Z,72.00
2023-03-13T01:09:40.166Z,71.70
2023-03-13T01:12:07.297Z,71.60
2023-03-13T01:14:34.215Z,71.60
2023-03-13T01:17:01.080Z,71.60
2023-03-13T01:19:27.936Z,71.80
2023-03-13T01:21:54.760Z,71.80
2023-03-13T01:24:22.362Z,71.50
2023-03-13T01:26:49.232Z,71.70
2023-03-13T01:29:16.091Z,71.70
2023-03-13T01:31:42.991Z,71.50
2023-03-13T01:34:10.659Z,71.40
2023-03-13T01:36:38.082Z,71.60
2023-03-13T01:39:05.814Z,71.50
2023-03-13T01:41:32.910Z,71.20
2023-03-13T01:44:00.179Z,71.20
2023-03-13T01:46:28.171Z,70.90
2023-03-13T01:49:04.784Z,70.80
2023-03-13T01:51:31.720Z,70.90
2023-03-13T01:54:15.794Z,71.00
2023-03-13T01:56:48.701Z,70.80
2023-03-13T01:59:17.188Z,71.00
2023-03-13T02:01:46.353Z,70.90
2023-03-13T02:04:14.453Z,70.60
2023-03-13T02:06:43.424Z,70.50
2023-03-13T02:09:12.628Z,70.70
2023-03-13T02:12:18.142Z,70.50
2023-03-13T02:14:45.836Z,70.30
2023-03-13T02:17:13.415Z,70.20
2023-03-13T02:19:43.652Z,70.50
2023-03-13T02:22:20.141Z,70.60
2023-03-13T02:24:52.932Z,70.30
2023-03-13T02:27:19.807Z,70.60
2023-03-13T02:29:47.105Z,70.50
2023-03-13T02:32:14.150Z,70.40
2023-03-13T02:34:41.935Z,70.20
2023-03-13T02:37:13.147Z,70.00
2023-03-13T02:39:42.559Z,70.30
2023-03-13T02:42:09.803Z,70.30
2023-03-13T02:44:40.551Z,70.50
2023-03-13T02:47:07.622Z,70.60
2023-03-13T02:49:34.508Z,70.70
2023-03-13T02:52:11.164Z,70.40
2023-03-13T02:54:38.810Z,70.40
2023-03-13T02:57:05.877Z,70.40
2023-03-13T02:59:33.237Z,70.30
2023-03-13T03:02:00.447Z,70.40
2023-03-13T03:04:27.747Z,70.40
2023-03-13T03:06:54.814Z,70.20
2023-03-13T03:09:22.565Z,70.30
2023-03-13T03:11:49.608Z,70.20
2023-03-13T03:14:16.970Z,70.40
2023-03-13T03:16:43.907Z,70.60
2023-03-13T03:19:13.459Z,70.50
2023-03-13T03:21:40.576Z,70.70
2023-03-13T03:24:07.678Z,70.70
2023-03-13T03:26:34.608Z,70.40
2023-03-13T03:29:01.511Z,70.80
2023-03-13T03:31:28.735Z,70.80
2023-03-13T03:33:56.981Z,70.70
2023-03-13T03:36:24.556Z,70.60
2023-03-13T03:38:52.049Z,70.20
2023-03-13T03:41:19.477Z,70.30
2023-03-13T03:43:47.787Z,70.30
2023-03-13T03:46:15.447Z,70.00
2023-03-13T03:48:42.418Z,69.90
2023-03-13T03:51:09.858Z,69.90
2023-03-13T03:53:36.904Z,69.60
2023-03-13T03:56:03.914Z,69.70
2023-03-13T03:58:30.863Z,70.00
2023-03-13T04:00:58.249Z,69.60
2023-03-13T04:03:25.458Z,69.50
2023-03-13T04:05:52.418Z,69.30
2023-03-13T04:08:19.326Z,69.30
2023-03-13T04:10:46.284Z,69.50
2023-03-13T04:13:13.232Z,69.70
2023-03-13T04:15:40.726Z,69.70
2023-03-13T04:18:07.870Z,69.70
2023-03-13T04:20:34.791Z,69.70
2023-03-13T04:23:01.686Z,69.70
2023-03-13T04:25:28.620Z,70.00
2023-03-13T04:27:55.590Z,69.80
2023-03-13T04:30:22.871Z,69.60
2023-03-13T04:32:51.277Z,69.40
2023-03-13T04:35:18.356Z,69.60
2023-03-13T04:37:45.292Z,69.50
2023-03-13T04:40:13.599Z,69.60
2023-03-13T04:42:41.042Z,69.50
2023-03-13T04:45:10.610Z,69.60
2023-03-13T04:47:37.543Z,69.80
2023-03-13T04:50:04.670Z,69.70
2023-03-13T04:52:31.551Z,69.70
2023-03-13T04:54:58.389Z,69.60
2023-03-13T04:57:28.323Z,69.30
2023-03-13T04:59:55.304Z,69.30
2023-03-13T05:02:22.279Z,68.90
2023-03-13T05:04:51.157Z,68.90
2023-03-13T05:07:19.109Z,68.90
2023-03-13T05:09:46.038Z,69.00
2023-03-13T05:12:12.963Z,68.90
2023-03-13T05:14:39.876Z,68.90
2023-03-13T05:17:06.767Z,69.00
2023-03-13T05:19:33.956Z,69.40
2023-03-13T05:22:00.851Z,69.60
2023-03-13T05:24:27.807Z,69.80
2023-03-13T05:26:54.786Z,70.00
2023-03-13T05:29:22.019Z,70.20
2023-03-13T05:31:48.928Z,70.30
2023-03-13T05:34:15.807Z,70.10
2023-03-13T05:36:42.772Z,70.20
2023-03-13T05:39:09.724Z,70.00
2023-03-13T05:41:36.644Z,69.90
2023-03-13T05:44:03.676Z,69.90
2023-03-13T05:46:31.270Z,69.90
2023-03-13T05:48:58.176Z,70.10
2023-03-13T05:51:25.051Z,70.20
2023-03-13T05:53:51.975Z,70.10
2023-03-13T05:56:18.990Z,70.10
2023-03-13T05:58:45.927Z,69.90
2023-03-13T06:01:13.510Z,70.10
2023-03-13T06:03:40.727Z,70.40
2023-03-13T06:06:07.883Z,70.30
2023-03-13T06:08:34.793Z,70.10
2023-03-13T06:11:02.479Z,70.10
2023-03-13T06:13:29.600Z,70.30
2023-03-13T06:15:57.396Z,70.40
2023-03-13T06:18:24.897Z,70.50
2023-03-13T06:20:56.393Z,70.30
2023-03-13T06:23:23.228Z,70.20
2023-03-13T06:25:50.149Z,70.30
2023-03-13T06:28:17.216Z,70.40
2023-03-13T06:30:44.152Z,70.30
2023-03-13T06:33:11.305Z,70.20
2023-03-13T06:35:55.241Z,70.20
2023-03-13T06:38:23.064Z,70.20
2023-03-13T06:40:49.989Z,70.40
2023-03-13T06:43:17.119Z,70.60
2023-03-13T06:45:43.993Z,70.70
2023-03-13T06:48:10.882Z,70.70
2023-03-13T06:50:38.571Z,70.90
2023-03-13T06:53:05.804Z,71.10
2023-03-13T06:55:32.697Z,71.40
2023-03-13T06:58:01.421Z,71.30
2023-03-13T07:00:28.793Z,71.40
2023-03-13T07:02:55.801Z,71.50
2023-03-13T07:05:22.690Z,71.60
2023-03-13T07:07:49.635Z,71.60
2023-03-13T07:10:16.835Z,71.70
2023-03-13T07:12:44.664Z,71.80
2023-03-13T07:15:11.730Z,71.80
2023-03-13T07:17:38.676Z,71.80
2023-03-13T07:20:06.866Z,71.90
2023-03-13T07:22:33.846Z,72.00
2023-03-13T07:25:00.855Z,72.00
2023-03-13T07:27:27.857Z,72.10
2023-03-13T07:29:54.765Z,72.10
2023-03-13T07:32:21.828Z,72.10
2023-03-13T07:34:48.775Z,72.10
2023-03-13T07:37:16.234Z,72.20
2023-03-13T07:39:43.900Z,72.30
2023-03-13T07:42:11.783Z,72.40
2023-03-13T07:44:38.793Z,72.30
2023-03-13T07:47:05.848Z,72.40
2023-03-13T07:49:33.851Z,72.40
2023-03-13T07:52:00.867Z,72.40
2023-03-13T07:54:27.785Z,72.50
2023-03-13T07:56:54.666Z,72.50
2023-03-13T07:59:21.859Z,72.50
2023-03-13T08:01:48.847Z,72.40
2023-03-13T08:04:15.802Z,72.40
2023-03-13T08:06:42.767Z,72.30
2023-03-13T08:09:10.039Z,72.50
2023-03-13T08:11:38.344Z,72.50
2023-03-13T08:14:05.313Z,72.60
2023-03-13T08:16:34.666Z,72.70
2023-03-13T08:19:04.812Z,72.70
2023-03-13T08:21:33.178Z,72.60
2023-03-13T08:24:01.517Z,72.60
2023-03-13T08:26:29.865Z,72.60
2023-03-13T08:29:07.726Z,72.60
2023-03-13T08:31:35.921Z,72.60
2023-03-13T08:34:02.935Z,72.60
2023-03-13T08:36:31.998Z,72.60
2023-03-13T08:38:59.902Z,72.60
2023-03-13T08:41:29.159Z,72.70
2023-03-13T08:43:56.891Z,72.80
2023-03-13T08:46:24.583Z,72.90
2023-03-13T08:48:52.273Z,73.10
2023-03-13T08:51:19.679Z,73.40
2023-03-13T08:53:46.780Z,73.70
2023-03-13T08:56:15.226Z,73.70
2023-03-13T08:58:42.380Z,73.40
2023-03-13T09:01:13.577Z,73.10
2023-03-13T09:03:41.066Z,73.00
2023-03-13T09:06:08.686Z,72.80
2023-03-13T09:08:36.212Z,72.70
2023-03-13T09:11:04.881Z,72.70
2023-03-13T09:13:32.821Z,72.70
2023-03-13T09:16:03.606Z,72.80
2023-03-13T09:18:30.817Z,72.80
2023-03-13T09:20:58.380Z,72.70
2023-03-13T09:23:25.518Z,72.70
2023-03-13T09:25:53.542Z,72.60
2023-03-13T09:28:20.541Z,72.50
2023-03-13T09:30:49.626Z,72.50
2023-03-13T09:33:17.221Z,72.40
2023-03-13T09:35:47.302Z,72.10
2023-03-13T09:38:14.179Z,72.10
2023-03-13T09:40:42.087Z,72.20
2023-03-13T09:43:18.517Z,72.30
2023-03-13T09:45:48.455Z,72.30
2023-03-13T09:48:25.038Z,72.30
2023-03-13T09:51:04.873Z,72.30
2023-03-13T09:53:37.862Z,72.30
2023-03-13T09:56:06.036Z,72.30
2023-03-13T09:58:34.527Z,72.40
2023-03-13T10:01:03.116Z,72.20
2023-03-13T10:03:31.975Z,72.10
2023-03-13T10:06:00.861Z,72.10
2023-03-13T10:08:30.263Z,72.30
2023-03-13T10:11:09.147Z,72.50
2023-03-13T10:13:47.983Z,72.70
2023-03-13T10:16:19.222Z,73.00
2023-03-13T10:18:49.215Z,73.10
2023-03-13T10:21:23.547Z,73.20
2023-03-13T10:24:00.692Z,73.20
2023-03-13T10:26:35.614Z,73.30
2023-03-13T10:29:15.367Z,73.30
2023-03-13T10:31:42.755Z,73.20
2023-03-13T10:34:10.885Z,73.10
2023-03-13T10:36:42.603Z,72.90
2023-03-13T10:39:15.293Z,72.80
2023-03-13T10:41:42.349Z,72.80
2023-03-13T10:44:35.589Z,72.70
2023-03-13T10:47:05.261Z,72.70
2023-03-13T10:49:32.831Z,72.50
2023-03-13T10:52:01.237Z,72.50
2023-03-13T10:54:29.990Z,72.50
2023-03-13T10:57:15.473Z,72.40
2023-03-13T10:59:47.495Z,72.30
2023-03-13T11:02:35.581Z,72.30
2023-03-13T11:05:22.877Z,72.30
2023-03-13T11:07:50.031Z,72.30
2023-03-13T11:10:18.662Z,72.30
2023-03-13T11:12:51.793Z,72.30
2023-03-13T11:15:29.911Z,72.40
2023-03-13T11:18:05.356Z,72.30
2023-03-13T11:20:36.711Z,72.40
2023-03-13T11:23:22.355Z,72.40
2023-03-13T11:25:58.122Z,72.30
2023-03-13T11:28:28.043Z,72.20
2023-03-13T11:30:54.895Z,72.10
2023-03-13T11:33:29.452Z,72.00
2023-03-13T11:36:05.603Z,71.90
2023-03-13T11:38:37.533Z,71.90
2023-03-13T11:41:07.222Z,71.80
2023-03-13T11:43:42.562Z,71.80
2023-03-13T11:46:21.427Z,71.90
2023-03-13T11:48:58.874Z,71.80
2023-03-13T11:51:34.908Z,71.90
2023-03-13T11:54:02.516Z,72.00
2023-03-13T11:56:33.292Z,72.20
2023-03-13T11:59:20.411Z,72.30
2023-03-13T12:01:52.410Z,72.40
2023-03-13T12:04:28.286Z,72.30
2023-03-13T12:07:04.868Z,72.30
2023-03-13T12:09:34.881Z,72.20
2023-03-13T12:12:11.222Z,72.00
2023-03-13T12:14:44.863Z,72.00
2023-03-13T12:17:25.288Z,71.90
2023-03-13T12:20:12.455Z,72.20
2023-03-13T12:22:53.044Z,72.30
2023-03-13T12:25:23.945Z,72.00
2023-03-13T12:28:01.566Z,71.20
2023-03-13T12:30:36.533Z,70.50
2023-03-13T12:33:24.022Z,69.90
2023-03-13T12:36:01.077Z,69.00
2023-03-13T12:38:52.737Z,68.40
2023-03-13T12:41:24.756Z,67.90
2023-03-13T12:44:07.372Z,67.20
2023-03-13T12:46:35.537Z,67.20
2023-03-13T12:49:02.443Z,67.10
2023-03-13T12:51:44.331Z,67.30
2023-03-13T12:54:29.854Z,67.40
2023-03-13T12:57:04.882Z,67.40
2023-03-13T12:59:37.113Z,67.50
2023-03-13T13:02:14.455Z,67.50
2023-03-13T13:04:45.678Z,67.50
2023-03-13T13:07:27.010Z,67.50
2023-03-13T13:10:12.172Z,67.60
2023-03-13T13:12:41.102Z,67.90
2023-03-13T13:15:20.001Z,68.00
2023-03-13T13:17:54.592Z,68.10
2023-03-13T13:20:32.625Z,68.30
2023-03-13T13:23:18.113Z,68.30
2023-03-13T13:25:45.298Z,68.30
2023-03-13T13:28:32.419Z,68.40
2023-03-13T13:30:59.798Z,68.50
2023-03-13T13:33:31.245Z,68.50
2023-03-13T13:36:10.274Z,68.60
2023-03-13T13:38:40.401Z,68.60
2023-03-13T13:41:07.505Z,68.70
2023-03-13T13:43:35.650Z,68.70
2023-03-13T13:46:22.997Z,68.80
2023-03-13T13:49:05.874Z,69.00
2023-03-13T13:51:33.894Z,69.00
2023-03-13T13:54:20.935Z,69.00
2023-03-13T13:56:49.605Z,69.00
2023-03-13T13:59:25.905Z,68.70
2023-03-13T14:02:09.854Z,68.40
2023-03-13T14:04:40.404Z,68.20
2023-03-13T14:07:12.484Z,68.00
2023-03-13T14:09:57.994Z,67.80
2023-03-13T14:12:24.936Z,67.50
2023-03-13T14:15:12.105Z,67.40
2023-03-13T14:17:40.395Z,67.10
2023-03-13T14:20:16.841Z,67.00
2023-03-13T14:22:47.413Z,66.70
2023-03-13T14:25:14.302Z,66.30
2023-03-13T14:27:44.841Z,65.90
2023-03-13T14:30:12.859Z,65.40
2023-03-13T14:32:39.850Z,64.90
2023-03-13T14:35:07.622Z,64.70
2023-03-13T14:37:54.737Z,64.60
2023-03-13T14:40:24.062Z,64.50
2023-03-13T14:42:52.570Z,64.30
2023-03-13T14:45:22.603Z,64.30
2023-03-13T14:47:50.438Z,64.20
2023-03-13T14:50:18.120Z,64.10
2023-03-13T14:52:54.288Z,64.00
2023-03-13T14:55:23.033Z,63.90
2023-03-13T14:57:56.230Z,63.90
2023-03-13T15:00:34.329Z,63.90
2023-03-13T15:03:20.361Z,63.90
2023-03-13T15:06:07.714Z,63.80
2023-03-13T15:08:36.102Z,63.80
2023-03-13T15:11:03.174Z,63.70
2023-03-13T15:13:34.563Z,63.60
2023-03-13T15:16:02.524Z,63.50
2023-03-13T15:18:33.676Z,63.50
2023-03-13T15:21:18.993Z,63.50
2023-03-13T15:23:48.980Z,63.30
2023-03-13T15:26:15.852Z,63.20
2023-03-13T15:28:42.751Z,63.30
2023-03-13T15:31:10.737Z,63.30
2023-03-13T15:33:37.651Z,63.30
2023-03-13T15:36:04.716Z,63.30
2023-03-13T15:38:31.606Z,63.20
2023-03-13T15:40:58.543Z,63.10
2023-03-13T15:43:26.326Z,63.00
2023-03-13T15:45:53.256Z,62.90
2023-03-13T15:48:30.191Z,62.80
2023-03-13T15:50:58.714Z,62.70
2023-03-13T15:53:26.792Z,62.70
2023-03-13T15:55:54.431Z,62.80
2023-03-13T15:58:21.867Z,62.80
2023-03-13T16:00:49.390Z,62.80
2023-03-13T16:03:20.549Z,62.90
2023-03-13T16:05:48.022Z,62.90
2023-03-13T16:08:25.896Z,62.90
2023-03-13T16:11:01.348Z,63.00
2023-03-13T16:13:28.300Z,63.10
2023-03-13T16:15:55.207Z,63.10
2023-03-13T16:18:25.309Z,63.10
2023-03-13T16:20:52.573Z,63.10
2023-03-13T16:23:19.437Z,63.10
2023-03-13T16:25:47.226Z,63.10
2023-03-13T16:28:14.966Z,63.10
2023-03-13T16:30:43.787Z,63.20
2023-03-13T16:33:11.498Z,63.10
2023-03-13T16:35:38.569Z,63.10
2023-03-13T16:38:08.426Z,63.20
2023-03-13T16:40:35.797Z,63.20
2023-03-13T16:43:02.721Z,63.20
2023-03-13T16:45:29.671Z,63.20
2023-03-13T16:47:56.618Z,63.20
2023-03-13T16:50:23.516Z,63.20
2023-03-13T16:52:51.495Z,63.30
2023-03-13T16:55:19.556Z,63.30
2023-03-13T16:57:46.461Z,63.40
2023-03-13T17:00:19.245Z,63.40
2023-03-13T17:02:46.397Z,63.50
2023-03-13T17:05:16.250Z,63.50
2023-03-13T17:07:44.729Z,63.60
2023-03-13T17:10:14.982Z,63.60
2023-03-13T17:12:41.857Z,63.70
2023-03-13T17:15:09.060Z,63.80
2023-03-13T17:17:36.122Z,63.80
2023-03-13T17:20:05.629Z,63.90
2023-03-13T17:22:32.535Z,63.90
2023-03-13T17:24:59.399Z,63.90
2023-03-13T17:27:26.431Z,63.90
2023-03-13T17:29:53.288Z,63.80
2023-03-13T17:32:20.321Z,63.90
2023-03-13T17:34:47.340Z,63.90
2023-03-13T17:37:18.478Z,63.90
2023-03-13T17:39:46.440Z,63.90
2023-03-13T17:42:13.411Z,63.90
2023-03-13T17:44:41.453Z,63.90
2023-03-13T17:47:15.806Z,63.80
2023-03-13T17:49:43.181Z,63.70
2023-03-13T17:52:13.128Z,63.50
2023-03-13T17:54:40.704Z,63.40
2023-03-13T17:57:15.434Z,62.70
2023-03-13T17:59:43.283Z,62.10
2023-03-13T18:02:11.691Z,61.90
2023-03-13T18:04:38.672Z,61.80
2023-03-13T18:07:13.928Z,61.70
2023-03-13T18:09:40.793Z,61.60
2023-03-13T18:12:09.522Z,61.30
2023-03-13T18:14:37.678Z,60.80
2023-03-13T18:17:06.671Z,60.80
2023-03-13T18:19:33.544Z,60.60
2023-03-13T18:22:00.435Z,60.50
2023-03-13T18:24:27.298Z,60.30
2023-03-13T18:26:54.172Z,60.30
2023-03-13T18:29:26.748Z,60.30
2023-03-13T18:31:55.464Z,60.30
2023-03-13T18:34:23.504Z,60.30
2023-03-13T18:36:50.505Z,60.40
2023-03-13T18:39:17.943Z,60.50
2023-03-13T18:41:45.198Z,60.60
2023-03-13T18:44:16.574Z,60.70
2023-03-13T18:46:43.693Z,60.70
2023-03-13T18:49:17.626Z,60.80
2023-03-13T18:51:44.625Z,60.80
2023-03-13T18:54:11.879Z,60.80
2023-03-13T18:56:38.983Z,60.90
2023-03-13T18:59:06.875Z,61.00
2023-03-13T19:01:33.733Z,61.10
2023-03-13T19:04:01.646Z,61.30
2023-03-13T19:06:31.770Z,61.40
2023-03-13T19:09:00.592Z,61.60
2023-03-13T19:11:28.704Z,61.80
2023-03-13T19:13:56.816Z,61.90
2023-03-13T19:16:49.904Z,62.10
2023-03-13T19:19:18.041Z,62.30
2023-03-13T19:21:44.938Z,62.30
2023-03-13T19:24:11.922Z,62.40
2023-03-13T19:26:46.232Z,62.60
2023-03-13T19:29:14.301Z,62.70
2023-03-13T19:31:41.379Z,62.90
2023-03-13T19:34:08.422Z,63.00
2023-03-13T19:36:37.285Z,63.10
2023-03-13T19:39:05.463Z,63.20
2023-03-13T19:41:32.467Z,62.70
2023-03-13T19:43:59.383Z,62.40
2023-03-13T19:46:30.006Z,61.50
2023-03-13T19:48:58.403Z,61.60
2023-03-13T19:51:25.959Z,61.60
2023-03-13T19:53:53.137Z,61.60
2023-03-13T19:56:22.239Z,61.30
2023-03-13T19:58:50.355Z,61.00
2023-03-13T20:01:18.247Z,60.60
2023-03-13T20:03:46.186Z,60.00
2023-03-13T20:06:17.713Z,60.00
2023-03-13T20:08:46.534Z,60.10
2023-03-13T20:11:14.481Z,59.90
2023-03-13T20:13:41.872Z,59.90
2023-03-13T20:16:10.445Z,59.80
2023-03-13T20:18:38.233Z,59.70
2023-03-13T20:21:05.356Z,59.40
2023-03-13T20:23:32.640Z,58.80
2023-03-13T20:26:03.995Z,57.90
2023-03-13T20:28:30.973Z,57.80
2023-03-13T20:30:58.150Z,57.50
2023-03-13T20:33:25.467Z,57.50
2023-03-13T20:35:56.226Z,57.20
2023-03-13T20:38:23.107Z,56.90
2023-03-13T20:40:53.886Z,56.60
2023-03-13T20:43:20.986Z,56.90
2023-03-13T20:45:48.021Z,56.70
2023-03-13T20:48:15.444Z,56.50
2023-03-13T20:50:42.512Z,56.60
2023-03-13T20:53:10.473Z,56.60
2023-03-13T20:55:38.114Z,56.10
2023-03-13T20:58:05.020Z,56.10
2023-03-13T21:00:32.450Z,56.00
2023-03-13T21:02:59.500Z,55.90
2023-03-13T21:05:26.669Z,55.90
2023-03-13T21:07:53.579Z,56.00
2023-03-13T21:10:20.695Z,55.50
2023-03-13T21:12:48.239Z,55.40
2023-03-13T21:15:15.704Z,55.40
2023-03-13T21:17:42.693Z,55.40
2023-03-13T21:20:13.028Z,55.40
2023-03-13T21:22:40.782Z,55.30
2023-03-13T21:25:08.287Z,55.30
2023-03-13T21:27:35.976Z,55.10
2023-03-13T21:30:04.237Z,55.30
2023-03-13T21:32:31.307Z,55.30
2023-03-13T21:34:58.162Z,55.30
2023-03-13T21:37:25.090Z,55.10
2023-03-13T21:39:52.352Z,55.30
2023-03-13T21:42:20.407Z,55.30
2023-03-13T21:44:48.488Z,55.30
2023-03-13T21:47:24.217Z,55.30
2023-03-13T21:49:52.361Z,55.30
2023-03-13T21:52:19.356Z,55.30
2023-03-13T21:54:46.277Z,55.30
2023-03-13T21:57:13.475Z,55.30
2023-03-13T21:59:41.261Z,55.40
2023-03-13T22:02:10.378Z,55.50
2023-03-13T22:04:37.274Z,55.60
2023-03-13T22:07:04.253Z,55.60
2023-03-13T22:09:31.230Z,55.50
2023-03-13T22:11:58.169Z,55.40
2023-03-13T22:14:26.203Z,55.50
2023-03-13T22:16:53.072Z,55.60
2023-03-13T22:19:20.332Z,55.70
2023-03-13T22:21:47.227Z,55.70
2023-03-13T22:24:14.113Z,55.60
2023-03-13T22:26:40.991Z,55.70
2023-03-13T22:29:07.902Z,55.70
2023-03-13T22:31:35.413Z,55.90
2023-03-13T22:34:02.595Z,55.90
2023-03-13T22:36:29.605Z,56.10
2023-03-13T22:38:56.483Z,56.30
2023-03-13T22:41:23.435Z,56.50
2023-03-13T22:43:50.313Z,56.70
2023-03-13T22:46:17.307Z,56.80
2023-03-13T22:48:44.196Z,57.00
2023-03-13T22:51:12.594Z,57.30
2023-03-13T22:53:40.433Z,57.60
2023-03-13T22:56:10.102Z,57.70
2023-03-13T22:58:37.651Z,58.00
2023-03-13T23:01:08.373Z,58.20
2023-03-13T23:03:35.872Z,58.30
2023-03-13T23:06:09.803Z,58.20
2023-03-13T23:08:36.694Z,58.10
2023-03-13T23:11:03.855Z,58.10
2023-03-13T23:13:31.250Z,58.40
2023-03-13T23:15:58.866Z,58.70
2023-03-13T23:18:26.435Z,59.00
2023-03-13T23:20:53.965Z,58.90
2023-03-13T23:23:20.926Z,59.00
2023-03-13T23:25:47.871Z,59.30
2023-03-13T23:28:14.812Z,59.50
2023-03-13T23:30:41.680Z,59.50
2023-03-13T23:33:08.558Z,59.30
2023-03-13T23:35:38.513Z,59.60
2023-03-13T23:38:05.440Z,59.50
2023-03-13T23:40:32.920Z,59.60
2023-03-13T23:42:59.818Z,60.10
2023-03-13T23:45:26.703Z,60.40
2023-03-13T23:47:53.721Z,60.50
2023-03-13T23:50:21.262Z,60.80
2023-03-13T23:52:49.149Z,61.10
2023-03-13T23:55:16.205Z,61.10
2023-03-13T23:57:43.225Z,61.30
